Big Bear Station Historical Data
Daily Summary for May 27, 2019 Units:  English    Metric   Both
Next Day »
Daily Weekly Monthly Yearly Custom
  High: Low: Average:
Temperature: 52.9 °F 27.5 °F 38.1 °F
Dew Point: 42.2 °F 26.5 °F 33.8 °F
Humidity: 99% 63% 86%
Wind Speed: 6.8mph 0mph 1.6mph
Wind Gust: -999mph - -
Wind- - West
Pressure: 23.41 in 23.29 in -
Precipitation: 0.46 in    
Historical Graphs
 
 
Tabular Data for May 27, 2019
Time Temperature Dew Point Pressure Wind Wind Speed Wind Gust Humidity Rainfall Rate (Hourly)
00:09 30.4 °F 30.2 °F 23.29 in WNW 2.7 mph -999 mph 99% 0.00 in
00:24 30.4 °F 30.2 °F 23.30 in NNE 3.7 mph -999 mph 99% 0.00 in
00:39 30.4 °F 30.2 °F 23.30 in NE 2.7 mph -999 mph 99% 0.00 in
00:55 30.2 °F 29.7 °F 23.29 in Calm   -999 mph 98% 0.00 in
01:10 30.2 °F 29.7 °F 23.29 in Calm   -999 mph 98% 0.00 in
01:25 30 °F 29.5 °F 23.29 in NW 2.7 mph -999 mph 98% 0.00 in
01:40 30 °F 29.5 °F 23.29 in ESE 2.2 mph -999 mph 98% 0.00 in
01:55 29.8 °F 29.3 °F 23.29 in NW 1.1 mph -999 mph 98% 0.00 in
02:11 29.7 °F 29 °F 23.29 in West 2.2 mph -999 mph 97% 0.00 in
02:26 29.5 °F 28.8 °F 23.30 in Calm   -999 mph 97% 0.00 in
02:41 28.9 °F 27.9 °F 23.30 in NNW 1.7 mph -999 mph 96% 0.00 in
02:56 28.4 °F 27.2 °F 23.30 in WSW 1.1 mph -999 mph 95% 0.00 in
03:11 28.2 °F 27.2 °F 23.30 in NNW 1.7 mph -999 mph 96% 0.00 in
03:27 28.2 °F 27.2 °F 23.30 in Calm   -999 mph 96% 0.00 in
03:43 27.9 °F 27.2 °F 23.29 in Calm   -999 mph 97% 0.00 in
03:58 27.9 °F 27.2 °F 23.29 in Calm   -999 mph 97% 0.00 in
04:13 27.7 °F 27 °F 23.29 in Calm   -999 mph 97% 0.00 in
04:28 27.7 °F 27 °F 23.29 in Calm   -999 mph 97% 0.00 in
04:43 27.9 °F 27.2 °F 23.29 in Calm   -999 mph 97% 0.00 in
04:59 28.6 °F 28.1 °F 23.30 in Calm   -999 mph 98% 0.00 in
05:14 28.2 °F 27.5 °F 23.30 in Calm   -999 mph 97% 0.00 in
05:29 28.2 °F 27.2 °F 23.31 in Calm   -999 mph 96% 0.00 in
05:44 28 °F 27 °F 23.31 in Calm   -999 mph 96% 0.00 in
05:59 28 °F 27 °F 23.31 in Calm   -999 mph 96% 0.00 in
06:15 27.7 °F 26.7 °F 23.31 in Calm   -999 mph 96% 0.00 in
06:30 27.5 °F 26.5 °F 23.32 in Calm   -999 mph 96% 0.00 in
06:45 28 °F 26.8 °F 23.32 in Calm   -999 mph 95% 0.00 in
07:00 28.4 °F 27.2 °F 23.32 in Calm   -999 mph 95% 0.00 in
07:15 28.6 °F 27.6 °F 23.32 in Calm   -999 mph 96% 0.00 in
07:31 28.4 °F 27.4 °F 23.33 in Calm   -999 mph 96% 0.00 in
07:46 29.5 °F 28.2 °F 23.34 in Calm   -999 mph 95% 0.00 in
08:01 30.2 °F 28.9 °F 23.34 in Calm   -999 mph 95% 0.00 in
08:16 30.9 °F 29.6 °F 23.35 in Calm   -999 mph 95% 0.00 in
08:31 31.3 °F 29.8 °F 23.35 in Calm   -999 mph 94% 0.00 in
08:47 32.5 °F 30.4 °F 23.35 in Calm   -999 mph 92% 0.00 in
09:02 33.6 °F 30.4 °F 23.36 in Calm   -999 mph 88% 0.00 in
09:17 34.2 °F 30.7 °F 23.37 in Calm   -999 mph 87% 0.00 in
09:33 36 °F 32.5 °F 23.37 in Calm   -999 mph 87% 0.00 in
09:48 36 °F 32.2 °F 23.37 in ENE 2.2 mph -999 mph 86% 0.00 in
10:03 37 °F 33.5 °F 23.37 in NNW 2.7 mph -999 mph 87% 0.00 in
10:19 37.8 °F 34.6 °F 23.38 in NNW 2.2 mph -999 mph 88% 0.00 in
10:34 37.6 °F 34.1 °F 23.38 in NNW 1.7 mph -999 mph 87% 0.00 in
10:49 39.7 °F 35.9 °F 23.38 in Calm   -999 mph 86% 0.00 in
11:04 39.9 °F 34.9 °F 23.38 in Calm   -999 mph 82% 0.00 in
11:19 41.2 °F 36.1 °F 23.39 in NW 4.2 mph -999 mph 82% 0.00 in
11:35 41.2 °F 35.8 °F 23.39 in West 6.8 mph -999 mph 81% 0.00 in
11:50 43.7 °F 37 °F 23.39 in NNW 5.8 mph -999 mph 77% 0.00 in
12:06 44.4 °F 38 °F 23.40 in ENE 1.7 mph -999 mph 78% 0.00 in
12:21 45.7 °F 39.6 °F 23.39 in Calm   -999 mph 79% 0.00 in
12:36 47.7 °F 40.8 °F 23.39 in NW 4.2 mph -999 mph 77% 0.00 in
12:52 47.7 °F 39.5 °F 23.39 in WNW 1.7 mph -999 mph 73% 0.00 in
13:07 47.3 °F 36.1 °F 23.39 in Calm   -999 mph 65% 0.00 in
13:22 49.1 °F 38.6 °F 23.39 in NNE 3.2 mph -999 mph 67% 0.00 in
13:37 50 °F 37.9 °F 23.39 in NW 4.7 mph -999 mph 63% 0.00 in
13:52 50.5 °F 40.3 °F 23.39 in SW 4.2 mph -999 mph 68% 0.00 in
14:08 51.6 °F 41.8 °F 23.39 in NW 5.3 mph -999 mph 69% 0.00 in
14:23 51.1 °F 40.1 °F 23.39 in North 4.7 mph -999 mph 66% 0.00 in
14:39 52 °F 41 °F 23.39 in NW 4.2 mph -999 mph 66% 0.00 in
14:54 52.2 °F 41.2 °F 23.39 in NNW 4.7 mph -999 mph 66% 0.00 in
15:09 50.4 °F 42.1 °F 23.39 in NNW 4.7 mph -999 mph 73% 0.00 in
15:24 49.8 °F 41.5 °F 23.39 in NNW 4.2 mph -999 mph 73% 0.00 in
15:39 50.2 °F 42.2 °F 23.39 in South 4.7 mph -999 mph 74% 0.00 in
15:55 48.7 °F 40.8 °F 23.40 in WNW 4.2 mph -999 mph 74% 0.00 in
16:10 48.7 °F 40.8 °F 23.40 in NNE 4.7 mph -999 mph 74% 0.00 in
16:26 50.2 °F 41.5 °F 23.40 in NW 6.3 mph -999 mph 72% 0.00 in
16:41 52.2 °F 41.6 °F 23.40 in North 3.2 mph -999 mph 67% 0.00 in
16:56 52.5 °F 41.5 °F 23.40 in NW 4.7 mph -999 mph 66% 0.00 in
17:11 52.3 °F 40.9 °F 23.40 in NNW 2.7 mph -999 mph 65% 0.00 in
17:27 52.9 °F 41.5 °F 23.40 in NW 3.2 mph -999 mph 65% 0.00 in
17:42 52 °F 41.4 °F 23.40 in NW 3.7 mph -999 mph 67% 0.00 in
17:58 51.3 °F 41.5 °F 23.39 in WNW 4.7 mph -999 mph 69% 0.00 in
18:13 51.3 °F 41.1 °F 23.40 in WNW 3.7 mph -999 mph 68% 0.00 in
18:28 48 °F 40.1 °F 23.40 in WNW 3.2 mph -999 mph 74% 0.00 in
18:44 48.7 °F 40.1 °F 23.40 in NW 2.2 mph -999 mph 72% 0.00 in
18:59 50 °F 41 °F 23.40 in WNW 2.2 mph -999 mph 71% 0.00 in
19:14 45.9 °F 38.1 °F 23.40 in NNW 2.7 mph -999 mph 74% 0.00 in
19:29 43.3 °F 36.9 °F 23.41 in Calm   -999 mph 78% 0.00 in
19:44 42.4 °F 36.7 °F 23.41 in NNW 3.7 mph -999 mph 80% 0.00 in
20:00 41 °F 35.9 °F 23.41 in Calm   -999 mph 82% 0.00 in
20:15 40.1 °F 36 °F 23.41 in Calm   -999 mph 85% 0.00 in
20:30 38.7 °F 35.2 °F 23.41 in Calm   -999 mph 87% 0.00 in
20:45 37.6 °F 34.4 °F 23.41 in Calm   -999 mph 88% 0.00 in
21:00 37 °F 34.1 °F 23.40 in Calm   -999 mph 89% 0.00 in
21:16 36.5 °F 34.1 °F 23.40 in Calm   -999 mph 91% 0.00 in
21:31 36.1 °F 33.7 °F 23.40 in Calm   -999 mph 91% 0.00 in
21:46 35.8 °F 33.7 °F 23.40 in Calm   -999 mph 92% 0.00 in
22:01 35.4 °F 33.3 °F 23.41 in Calm   -999 mph 92% 0.00 in
22:16 34.9 °F 32.8 °F 23.41 in Calm   -999 mph 92% 0.00 in
22:32 34.5 °F 32.7 °F 23.41 in Calm   -999 mph 93% 0.00 in
22:47 34 °F 32.5 °F 23.41 in Calm   -999 mph 94% 0.00 in
23:02 33.8 °F 32.3 °F 23.41 in Calm   -999 mph 94% 0.00 in
23:17 33.3 °F 31.8 °F 23.40 in Calm   -999 mph 94% 0.00 in
23:32 32.7 °F 31.2 °F 23.40 in Calm   -999 mph 94% 0.00 in
23:48 32.4 °F 30.9 °F 23.40 in Calm   -999 mph 94% 0.00 in
Big Bear CA Weather